sensor_id;sensor_type;location;lat;lon;timestamp;temperature;humidity
18229;DHT22;9239;50.932;3.142;2023-03-17T00:00:21;10.20;99.90
18229;DHT22;9239;50.932;3.142;2023-03-17T00:02:49;10.20;99.90
18229;DHT22;9239;50.932;3.142;2023-03-17T00:05:23;10.10;99.90
18229;DHT22;9239;50.932;3.142;2023-03-17T00:07:51;10.10;99.90
18229;DHT22;9239;50.932;3.142;2023-03-17T00:10:21;10.10;99.90
18229;DHT22;9239;50.932;3.142;2023-03-17T00:12:49;10.10;99.90
18229;DHT22;9239;50.932;3.142;2023-03-17T00:15:18;10.10;99.90
18229;DHT22;9239;50.932;3.142;2023-03-17T00:17:46;10.10;99.90
18229;DHT22;9239;50.932;3.142;2023-03-17T00:20:25;10.10;99.90
18229;DHT22;9239;50.932;3.142;2023-03-17T00:22:52;10.10;99.90
18229;DHT22;9239;50.932;3.142;2023-03-17T00:25:25;10.20;99.90
18229;DHT22;9239;50.932;3.142;2023-03-17T00:27:53;10.20;99.90
18229;DHT22;9239;50.932;3.142;2023-03-17T00:30:21;10.20;99.90
18229;DHT22;9239;50.932;3.142;2023-03-17T00:32:50;10.20;99.90
18229;DHT22;9239;50.932;3.142;2023-03-17T00:35:20;10.20;99.90
18229;DHT22;9239;50.932;3.142;2023-03-17T00:37:50;10.20;99.90
18229;DHT22;9239;50.932;3.142;2023-03-17T00:40:20;10.20;99.90
18229;DHT22;9239;50.932;3.142;2023-03-17T00:42:48;10.20;99.90
18229;DHT22;9239;50.932;3.142;2023-03-17T00:45:15;10.20;99.90
18229;DHT22;9239;50.932;3.142;2023-03-17T00:47:43;10.20;99.90
18229;DHT22;9239;50.932;3.142;2023-03-17T00:50:13;10.20;99.90
18229;DHT22;9239;50.932;3.142;2023-03-17T00:52:41;10.20;99.90
18229;DHT22;9239;50.932;3.142;2023-03-17T00:55:10;10.20;99.90
18229;DHT22;9239;50.932;3.142;2023-03-17T00:57:38;10.20;99.90
18229;DHT22;9239;50.932;3.142;2023-03-17T01:00:11;10.20;99.90
18229;DHT22;9239;50.932;3.142;2023-03-17T01:02:42;10.10;99.90
18229;DHT22;9239;50.932;3.142;2023-03-17T01:05:10;10.10;99.90
18229;DHT22;9239;50.932;3.142;2023-03-17T01:07:37;10.10;99.90
18229;DHT22;9239;50.932;3.142;2023-03-17T01:10:12;10.10;99.90
18229;DHT22;9239;50.932;3.142;2023-03-17T01:12:41;10.10;99.90
18229;DHT22;9239;50.932;3.142;2023-03-17T01:15:11;10.10;99.90
18229;DHT22;9239;50.932;3.142;2023-03-17T01:17:38;10.00;99.90
18229;DHT22;9239;50.932;3.142;2023-03-17T01:20:07;10.00;99.90
18229;DHT22;9239;50.932;3.142;2023-03-17T01:22:36;10.00;99.90
18229;DHT22;9239;50.932;3.142;2023-03-17T01:25:04;10.00;99.90
18229;DHT22;9239;50.932;3.142;2023-03-17T01:27:34;10.10;99.90
18229;DHT22;9239;50.932;3.142;2023-03-17T01:30:02;10.10;99.90
18229;DHT22;9239;50.932;3.142;2023-03-17T01:32:29;10.00;99.90
18229;DHT22;9239;50.932;3.142;2023-03-17T01:34:56;10.00;99.90
18229;DHT22;9239;50.932;3.142;2023-03-17T01:37:23;10.00;99.90
18229;DHT22;9239;50.932;3.142;2023-03-17T01:39:50;10.00;99.90
18229;DHT22;9239;50.932;3.142;2023-03-17T01:42:17;10.00;99.90
18229;DHT22;9239;50.932;3.142;2023-03-17T01:44:59;10.00;99.90
18229;DHT22;9239;50.932;3.142;2023-03-17T01:47:27;10.00;99.90
18229;DHT22;9239;50.932;3.142;2023-03-17T01:49:55;10.00;99.90
18229;DHT22;9239;50.932;3.142;2023-03-17T01:52:23;10.00;99.90
18229;DHT22;9239;50.932;3.142;2023-03-17T01:54:53;10.00;99.90
18229;DHT22;9239;50.932;3.142;2023-03-17T01:57:24;10.00;99.90
18229;DHT22;9239;50.932;3.142;2023-03-17T01:59:56;9.90;99.90
18229;DHT22;9239;50.932;3.142;2023-03-17T02:02:29;9.90;99.90
18229;DHT22;9239;50.932;3.142;2023-03-17T02:04:57;9.80;99.90
18229;DHT22;9239;50.932;3.142;2023-03-17T02:07:24;9.80;99.90
18229;DHT22;9239;50.932;3.142;2023-03-17T02:09:53;9.80;99.90
18229;DHT22;9239;50.932;3.142;2023-03-17T02:12:21;9.70;99.90
18229;DHT22;9239;50.932;3.142;2023-03-17T02:14:49;9.70;99.90
18229;DHT22;9239;50.932;3.142;2023-03-17T02:17:16;9.60;99.90
18229;DHT22;9239;50.932;3.142;2023-03-17T02:19:44;9.50;99.90
18229;DHT22;9239;50.932;3.142;2023-03-17T02:22:13;9.50;99.90
18229;DHT22;9239;50.932;3.142;2023-03-17T02:24:43;9.50;99.90
18229;DHT22;9239;50.932;3.142;2023-03-17T02:27:16;9.40;99.90
18229;DHT22;9239;50.932;3.142;2023-03-17T02:29:44;9.30;99.90
18229;DHT22;9239;50.932;3.142;2023-03-17T02:32:13;9.30;99.90
18229;DHT22;9239;50.932;3.142;2023-03-17T02:34:40;9.20;99.90
18229;DHT22;9239;50.932;3.142;2023-03-17T02:37:07;9.30;99.90
18229;DHT22;9239;50.932;3.142;2023-03-17T02:39:35;9.30;99.90
18229;DHT22;9239;50.932;3.142;2023-03-17T02:42:03;9.40;99.90
18229;DHT22;9239;50.932;3.142;2023-03-17T02:44:30;9.40;99.90
18229;DHT22;9239;50.932;3.142;2023-03-17T02:46:58;9.30;99.90
18229;DHT22;9239;50.932;3.142;2023-03-17T02:49:26;9.30;99.90
18229;DHT22;9239;50.932;3.142;2023-03-17T02:51:53;9.30;99.90
18229;DHT22;9239;50.932;3.142;2023-03-17T02:54:20;9.40;99.90
18229;DHT22;9239;50.932;3.142;2023-03-17T02:56:49;9.40;99.90
18229;DHT22;9239;50.932;3.142;2023-03-17T02:59:15;9.50;99.90
18229;DHT22;9239;50.932;3.142;2023-03-17T03:01:42;9.50;99.90
18229;DHT22;9239;50.932;3.142;2023-03-17T03:04:09;9.50;99.90
18229;DHT22;9239;50.932;3.142;2023-03-17T03:06:36;9.50;99.90
18229;DHT22;9239;50.932;3.142;2023-03-17T03:09:04;9.60;99.90
18229;DHT22;9239;50.932;3.142;2023-03-17T03:11:31;9.70;99.90
18229;DHT22;9239;50.932;3.142;2023-03-17T03:13:59;9.70;99.90
18229;DHT22;9239;50.932;3.142;2023-03-17T03:16:26;9.70;99.90
18229;DHT22;9239;50.932;3.142;2023-03-17T03:18:53;9.60;99.90
18229;DHT22;9239;50.932;3.142;2023-03-17T03:21:20;9.60;99.90
18229;DHT22;9239;50.932;3.142;2023-03-17T03:23:47;9.60;99.90
18229;DHT22;9239;50.932;3.142;2023-03-17T03:26:14;9.60;99.90
18229;DHT22;9239;50.932;3.142;2023-03-17T03:28:41;9.50;99.90
18229;DHT22;9239;50.932;3.142;2023-03-17T03:31:09;9.50;99.90
18229;DHT22;9239;50.932;3.142;2023-03-17T03:33:38;9.50;99.90
18229;DHT22;9239;50.932;3.142;2023-03-17T03:36:05;9.50;99.90
18229;DHT22;9239;50.932;3.142;2023-03-17T03:38:33;9.50;99.90
18229;DHT22;9239;50.932;3.142;2023-03-17T03:41:00;9.50;99.90
18229;DHT22;9239;50.932;3.142;2023-03-17T03:43:27;9.40;99.90
18229;DHT22;9239;50.932;3.142;2023-03-17T03:45:54;9.40;99.90
18229;DHT22;9239;50.932;3.142;2023-03-17T03:48:23;9.40;99.90
18229;DHT22;9239;50.932;3.142;2023-03-17T03:50:50;9.40;99.90
18229;DHT22;9239;50.932;3.142;2023-03-17T03:53:20;9.40;99.90
18229;DHT22;9239;50.932;3.142;2023-03-17T03:55:47;9.50;99.90
18229;DHT22;9239;50.932;3.142;2023-03-17T03:58:14;9.40;99.90
18229;DHT22;9239;50.932;3.142;2023-03-17T04:00:41;9.30;99.90
18229;DHT22;9239;50.932;3.142;2023-03-17T04:03:08;9.30;99.90
18229;DHT22;9239;50.932;3.142;2023-03-17T04:05:36;9.20;99.90
18229;DHT22;9239;50.932;3.142;2023-03-17T04:08:03;9.20;99.90
18229;DHT22;9239;50.932;3.142;2023-03-17T04:10:30;9.10;99.90
18229;DHT22;9239;50.932;3.142;2023-03-17T04:12:57;9.00;99.90
18229;DHT22;9239;50.932;3.142;2023-03-17T04:15:24;9.00;99.90
18229;DHT22;9239;50.932;3.142;2023-03-17T04:17:51;8.90;99.90
18229;DHT22;9239;50.932;3.142;2023-03-17T04:20:19;8.90;99.90
18229;DHT22;9239;50.932;3.142;2023-03-17T04:22:48;8.90;99.90
18229;DHT22;9239;50.932;3.142;2023-03-17T04:25:15;8.90;99.90
18229;DHT22;9239;50.932;3.142;2023-03-17T04:27:42;9.00;99.90
18229;DHT22;9239;50.932;3.142;2023-03-17T04:30:11;9.00;99.90
18229;DHT22;9239;50.932;3.142;2023-03-17T04:32:39;9.00;99.90
18229;DHT22;9239;50.932;3.142;2023-03-17T04:35:07;8.90;99.90
18229;DHT22;9239;50.932;3.142;2023-03-17T04:37:35;8.90;99.90
18229;DHT22;9239;50.932;3.142;2023-03-17T04:40:06;8.90;99.90
18229;DHT22;9239;50.932;3.142;2023-03-17T04:42:34;8.80;99.90
18229;DHT22;9239;50.932;3.142;2023-03-17T04:45:01;8.90;99.90
18229;DHT22;9239;50.932;3.142;2023-03-17T04:47:28;8.80;99.90
18229;DHT22;9239;50.932;3.142;2023-03-17T04:49:55;8.90;99.90
18229;DHT22;9239;50.932;3.142;2023-03-17T04:52:22;8.80;99.90
18229;DHT22;9239;50.932;3.142;2023-03-17T04:54:49;8.80;99.90
18229;DHT22;9239;50.932;3.142;2023-03-17T04:57:17;8.70;99.90
18229;DHT22;9239;50.932;3.142;2023-03-17T04:59:44;8.70;99.90
18229;DHT22;9239;50.932;3.142;2023-03-17T05:02:11;8.70;99.90
18229;DHT22;9239;50.932;3.142;2023-03-17T05:04:38;8.70;99.90
18229;DHT22;9239;50.932;3.142;2023-03-17T05:07:05;8.70;99.90
18229;DHT22;9239;50.932;3.142;2023-03-17T05:09:32;8.80;99.90
18229;DHT22;9239;50.932;3.142;2023-03-17T05:11:59;8.80;99.90
18229;DHT22;9239;50.932;3.142;2023-03-17T05:14:27;8.80;99.90
18229;DHT22;9239;50.932;3.142;2023-03-17T05:16:54;8.80;99.90
18229;DHT22;9239;50.932;3.142;2023-03-17T05:19:21;8.80;99.90
18229;DHT22;9239;50.932;3.142;2023-03-17T05:21:47;8.80;99.90
18229;DHT22;9239;50.932;3.142;2023-03-17T05:24:15;8.70;99.90
18229;DHT22;9239;50.932;3.142;2023-03-17T05:26:42;8.70;99.90
18229;DHT22;9239;50.932;3.142;2023-03-17T05:29:09;8.70;99.90
18229;DHT22;9239;50.932;3.142;2023-03-17T05:31:37;8.70;99.90
18229;DHT22;9239;50.932;3.142;2023-03-17T05:34:04;8.70;99.90
18229;DHT22;9239;50.932;3.142;2023-03-17T05:36:31;8.60;99.90
18229;DHT22;9239;50.932;3.142;2023-03-17T05:38:58;8.50;99.90
18229;DHT22;9239;50.932;3.142;2023-03-17T05:41:25;8.60;99.90
18229;DHT22;9239;50.932;3.142;2023-03-17T05:43:52;8.60;99.90
18229;DHT22;9239;50.932;3.142;2023-03-17T05:46:19;8.60;99.90
18229;DHT22;9239;50.932;3.142;2023-03-17T05:48:48;8.70;99.90
18229;DHT22;9239;50.932;3.142;2023-03-17T05:51:15;8.80;99.90
18229;DHT22;9239;50.932;3.142;2023-03-17T05:53:42;8.90;99.90
18229;DHT22;9239;50.932;3.142;2023-03-17T05:56:08;8.90;99.90
18229;DHT22;9239;50.932;3.142;2023-03-17T05:58:35;8.80;99.90
18229;DHT22;9239;50.932;3.142;2023-03-17T06:01:02;8.80;99.90
18229;DHT22;9239;50.932;3.142;2023-03-17T06:03:30;8.80;99.90
18229;DHT22;9239;50.932;3.142;2023-03-17T06:05:58;8.70;99.90
18229;DHT22;9239;50.932;3.142;2023-03-17T06:08:25;8.70;99.90
18229;DHT22;9239;50.932;3.142;2023-03-17T06:10:52;8.80;99.90
18229;DHT22;9239;50.932;3.142;2023-03-17T06:13:19;8.80;99.90
18229;DHT22;9239;50.932;3.142;2023-03-17T06:15:47;8.80;99.90
18229;DHT22;9239;50.932;3.142;2023-03-17T06:18:15;8.70;99.90
18229;DHT22;9239;50.932;3.142;2023-03-17T06:20:43;8.80;99.90
18229;DHT22;9239;50.932;3.142;2023-03-17T06:23:12;8.70;99.90
18229;DHT22;9239;50.932;3.142;2023-03-17T06:25:39;8.70;99.90
18229;DHT22;9239;50.932;3.142;2023-03-17T06:28:06;8.80;99.90
18229;DHT22;9239;50.932;3.142;2023-03-17T06:30:34;8.80;99.90
18229;DHT22;9239;50.932;3.142;2023-03-17T06:33:02;8.80;99.90
18229;DHT22;9239;50.932;3.142;2023-03-17T06:35:29;8.80;99.90
18229;DHT22;9239;50.932;3.142;2023-03-17T06:37:57;8.80;99.90
18229;DHT22;9239;50.932;3.142;2023-03-17T06:40:25;8.80;99.90
18229;DHT22;9239;50.932;3.142;2023-03-17T06:42:52;8.80;99.90
18229;DHT22;9239;50.932;3.142;2023-03-17T06:45:19;8.80;99.90
18229;DHT22;9239;50.932;3.142;2023-03-17T06:47:46;8.80;99.90
18229;DHT22;9239;50.932;3.142;2023-03-17T06:50:13;8.80;99.90
18229;DHT22;9239;50.932;3.142;2023-03-17T06:52:40;8.90;99.90
18229;DHT22;9239;50.932;3.142;2023-03-17T06:55:09;8.90;99.90
18229;DHT22;9239;50.932;3.142;2023-03-17T06:57:37;8.90;99.90
18229;DHT22;9239;50.932;3.142;2023-03-17T07:00:05;8.90;99.90
18229;DHT22;9239;50.932;3.142;2023-03-17T07:02:33;8.90;99.90
18229;DHT22;9239;50.932;3.142;2023-03-17T07:05:00;9.00;99.90
18229;DHT22;9239;50.932;3.142;2023-03-17T07:07:28;9.00;99.90
18229;DHT22;9239;50.932;3.142;2023-03-17T07:09:55;9.00;99.90
18229;DHT22;9239;50.932;3.142;2023-03-17T07:12:22;9.00;99.90
18229;DHT22;9239;50.932;3.142;2023-03-17T07:14:51;9.00;99.90
18229;DHT22;9239;50.932;3.142;2023-03-17T07:17:17;9.10;99.90
18229;DHT22;9239;50.932;3.142;2023-03-17T07:19:45;9.10;99.90
18229;DHT22;9239;50.932;3.142;2023-03-17T07:22:12;9.20;99.90
18229;DHT22;9239;50.932;3.142;2023-03-17T07:24:39;9.20;99.90
18229;DHT22;9239;50.932;3.142;2023-03-17T07:27:07;9.30;99.90
18229;DHT22;9239;50.932;3.142;2023-03-17T07:29:34;9.40;99.90
18229;DHT22;9239;50.932;3.142;2023-03-17T07:32:03;9.40;99.90
18229;DHT22;9239;50.932;3.142;2023-03-17T07:34:31;9.50;99.90
18229;DHT22;9239;50.932;3.142;2023-03-17T07:36:58;9.60;99.90
18229;DHT22;9239;50.932;3.142;2023-03-17T07:39:25;9.70;99.90
18229;DHT22;9239;50.932;3.142;2023-03-17T07:41:52;9.90;99.90
18229;DHT22;9239;50.932;3.142;2023-03-17T07:44:20;9.90;99.90
18229;DHT22;9239;50.932;3.142;2023-03-17T07:46:47;10.00;99.90
18229;DHT22;9239;50.932;3.142;2023-03-17T07:49:16;10.10;99.90
18229;DHT22;9239;50.932;3.142;2023-03-17T07:51:43;10.30;99.90
18229;DHT22;9239;50.932;3.142;2023-03-17T07:54:11;10.40;99.90
18229;DHT22;9239;50.932;3.142;2023-03-17T07:56:39;10.40;99.90
18229;DHT22;9239;50.932;3.142;2023-03-17T07:59:06;10.50;99.90
18229;DHT22;9239;50.932;3.142;2023-03-17T08:01:34;10.50;99.90
18229;DHT22;9239;50.932;3.142;2023-03-17T08:04:01;10.60;99.90
18229;DHT22;9239;50.932;3.142;2023-03-17T08:06:30;10.80;99.90
18229;DHT22;9239;50.932;3.142;2023-03-17T08:08:57;10.90;99.90
18229;DHT22;9239;50.932;3.142;2023-03-17T08:11:24;11.10;99.90
18229;DHT22;9239;50.932;3.142;2023-03-17T08:13:51;11.10;99.90
18229;DHT22;9239;50.932;3.142;2023-03-17T08:16:17;11.20;99.90
18229;DHT22;9239;50.932;3.142;2023-03-17T08:18:44;11.20;99.90
18229;DHT22;9239;50.932;3.142;2023-03-17T08:21:12;11.40;99.90
18229;DHT22;9239;50.932;3.142;2023-03-17T08:23:40;11.40;99.90
18229;DHT22;9239;50.932;3.142;2023-03-17T08:26:07;11.40;99.90
18229;DHT22;9239;50.932;3.142;2023-03-17T08:28:34;11.20;99.90
18229;DHT22;9239;50.932;3.142;2023-03-17T08:31:09;11.20;99.90
18229;DHT22;9239;50.932;3.142;2023-03-17T08:33:38;11.10;99.90
18229;DHT22;9239;50.932;3.142;2023-03-17T08:36:06;11.10;99.90
18229;DHT22;9239;50.932;3.142;2023-03-17T08:38:34;11.20;99.90
18229;DHT22;9239;50.932;3.142;2023-03-17T08:41:04;11.20;99.90
18229;DHT22;9239;50.932;3.142;2023-03-17T08:43:32;11.30;99.90
18229;DHT22;9239;50.932;3.142;2023-03-17T08:46:01;11.40;99.90
18229;DHT22;9239;50.932;3.142;2023-03-17T08:48:29;11.50;99.90
18229;DHT22;9239;50.932;3.142;2023-03-17T08:50:56;11.60;99.90
18229;DHT22;9239;50.932;3.142;2023-03-17T08:53:24;11.60;99.90
18229;DHT22;9239;50.932;3.142;2023-03-17T08:55:53;11.60;99.90
18229;DHT22;9239;50.932;3.142;2023-03-17T08:58:23;11.70;99.90
18229;DHT22;9239;50.932;3.142;2023-03-17T09:00:50;11.70;99.90
18229;DHT22;9239;50.932;3.142;2023-03-17T09:03:17;11.70;99.90
18229;DHT22;9239;50.932;3.142;2023-03-17T09:05:45;11.80;99.90
18229;DHT22;9239;50.932;3.142;2023-03-17T09:08:12;12.00;99.90
18229;DHT22;9239;50.932;3.142;2023-03-17T09:10:39;12.10;99.90
18229;DHT22;9239;50.932;3.142;2023-03-17T09:13:06;12.20;99.90
18229;DHT22;9239;50.932;3.142;2023-03-17T09:15:34;12.20;99.90
18229;DHT22;9239;50.932;3.142;2023-03-17T09:18:02;12.10;99.90
18229;DHT22;9239;50.932;3.142;2023-03-17T09:20:29;12.10;99.90
18229;DHT22;9239;50.932;3.142;2023-03-17T09:22:57;12.10;99.90
18229;DHT22;9239;50.932;3.142;2023-03-17T09:25:24;12.10;99.90
18229;DHT22;9239;50.932;3.142;2023-03-17T09:27:52;12.10;99.90
18229;DHT22;9239;50.932;3.142;2023-03-17T09:30:18;12.10;99.90
18229;DHT22;9239;50.932;3.142;2023-03-17T09:32:47;12.20;99.90
18229;DHT22;9239;50.932;3.142;2023-03-17T09:35:14;12.30;99.90
18229;DHT22;9239;50.932;3.142;2023-03-17T09:37:41;12.30;99.90
18229;DHT22;9239;50.932;3.142;2023-03-17T09:40:13;12.20;99.90
18229;DHT22;9239;50.932;3.142;2023-03-17T09:42:48;12.10;99.90
18229;DHT22;9239;50.932;3.142;2023-03-17T09:45:24;12.20;99.90
18229;DHT22;9239;50.932;3.142;2023-03-17T09:48:11;12.20;99.90
18229;DHT22;9239;50.932;3.142;2023-03-17T09:50:45;12.40;99.90
18229;DHT22;9239;50.932;3.142;2023-03-17T09:53:17;12.50;99.90
18229;DHT22;9239;50.932;3.142;2023-03-17T09:55:47;12.40;99.90
18229;DHT22;9239;50.932;3.142;2023-03-17T09:58:19;12.60;99.90
18229;DHT22;9239;50.932;3.142;2023-03-17T10:00:47;12.70;99.90
18229;DHT22;9239;50.932;3.142;2023-03-17T10:03:15;12.80;99.90
18229;DHT22;9239;50.932;3.142;2023-03-17T10:05:43;13.00;99.90
18229;DHT22;9239;50.932;3.142;2023-03-17T10:08:13;13.30;99.90
18229;DHT22;9239;50.932;3.142;2023-03-17T10:10:45;13.60;99.90
18229;DHT22;9239;50.932;3.142;2023-03-17T10:13:26;13.70;99.90
18229;DHT22;9239;50.932;3.142;2023-03-17T10:15:57;13.80;99.90
18229;DHT22;9239;50.932;3.142;2023-03-17T10:18:30;14.00;99.90
18229;DHT22;9239;50.932;3.142;2023-03-17T10:21:00;14.00;99.90
18229;DHT22;9239;50.932;3.142;2023-03-17T10:23:31;14.00;99.90
18229;DHT22;9239;50.932;3.142;2023-03-17T10:26:03;14.10;99.90
18229;DHT22;9239;50.932;3.142;2023-03-17T10:28:33;14.10;99.90
18229;DHT22;9239;50.932;3.142;2023-03-17T10:31:13;14.20;99.90
18229;DHT22;9239;50.932;3.142;2023-03-17T10:33:41;14.20;99.90
18229;DHT22;9239;50.932;3.142;2023-03-17T10:36:12;14.30;99.90
18229;DHT22;9239;50.932;3.142;2023-03-17T10:38:40;14.50;99.90
18229;DHT22;9239;50.932;3.142;2023-03-17T10:41:11;14.50;99.90
18229;DHT22;9239;50.932;3.142;2023-03-17T10:43:42;14.50;99.90
18229;DHT22;9239;50.932;3.142;2023-03-17T10:46:17;14.50;99.90
18229;DHT22;9239;50.932;3.142;2023-03-17T10:48:51;14.50;99.90
18229;DHT22;9239;50.932;3.142;2023-03-17T10:51:26;14.70;99.90
18229;DHT22;9239;50.932;3.142;2023-03-17T10:53:58;14.60;99.90
18229;DHT22;9239;50.932;3.142;2023-03-17T10:56:26;14.60;99.90
18229;DHT22;9239;50.932;3.142;2023-03-17T10:58:55;14.60;99.90
18229;DHT22;9239;50.932;3.142;2023-03-17T11:01:27;14.60;99.90
18229;DHT22;9239;50.932;3.142;2023-03-17T11:03:56;14.60;99.90
18229;DHT22;9239;50.932;3.142;2023-03-17T11:06:31;14.80;99.90
18229;DHT22;9239;50.932;3.142;2023-03-17T11:09:06;14.70;99.90
18229;DHT22;9239;50.932;3.142;2023-03-17T11:11:42;14.80;99.90
18229;DHT22;9239;50.932;3.142;2023-03-17T11:14:11;15.00;99.90
18229;DHT22;9239;50.932;3.142;2023-03-17T11:16:41;15.30;99.90
18229;DHT22;9239;50.932;3.142;2023-03-17T11:19:16;15.50;99.90
18229;DHT22;9239;50.932;3.142;2023-03-17T11:21:51;15.80;99.90
18229;DHT22;9239;50.932;3.142;2023-03-17T11:24:23;15.80;99.90
18229;DHT22;9239;50.932;3.142;2023-03-17T11:26:55;15.90;99.90
18229;DHT22;9239;50.932;3.142;2023-03-17T11:29:32;16.10;99.90
18229;DHT22;9239;50.932;3.142;2023-03-17T11:32:17;16.20;99.90
18229;DHT22;9239;50.932;3.142;2023-03-17T11:34:59;16.20;99.90
18229;DHT22;9239;50.932;3.142;2023-03-17T11:37:44;16.20;99.90
18229;DHT22;9239;50.932;3.142;2023-03-17T11:40:18;16.30;99.90
18229;DHT22;9239;50.932;3.142;2023-03-17T11:42:54;16.20;99.90
18229;DHT22;9239;50.932;3.142;2023-03-17T11:45:28;16.20;99.90
18229;DHT22;9239;50.932;3.142;2023-03-17T11:48:04;16.30;99.90
18229;DHT22;9239;50.932;3.142;2023-03-17T11:50:39;16.50;99.90
18229;DHT22;9239;50.932;3.142;2023-03-17T11:53:19;16.60;99.90
18229;DHT22;9239;50.932;3.142;2023-03-17T11:55:53;16.70;99.90
18229;DHT22;9239;50.932;3.142;2023-03-17T11:58:26;16.60;99.90
18229;DHT22;9239;50.932;3.142;2023-03-17T12:00:57;16.60;99.90
18229;DHT22;9239;50.932;3.142;2023-03-17T12:03:30;16.60;99.90
18229;DHT22;9239;50.932;3.142;2023-03-17T12:06:05;16.60;99.90
18229;DHT22;9239;50.932;3.142;2023-03-17T12:08:38;16.80;99.90
18229;DHT22;9239;50.932;3.142;2023-03-17T12:11:11;17.00;99.90
18229;DHT22;9239;50.932;3.142;2023-03-17T12:13:43;17.10;99.90
18229;DHT22;9239;50.932;3.142;2023-03-17T12:16:16;17.20;99.90
18229;DHT22;9239;50.932;3.142;2023-03-17T12:18:52;17.20;99.90
18229;DHT22;9239;50.932;3.142;2023-03-17T12:21:24;17.30;99.90
18229;DHT22;9239;50.932;3.142;2023-03-17T12:23:57;17.40;99.90
18229;DHT22;9239;50.932;3.142;2023-03-17T12:26:32;17.50;99.90
18229;DHT22;9239;50.932;3.142;2023-03-17T12:29:04;17.40;99.90
18229;DHT22;9239;50.932;3.142;2023-03-17T12:31:36;17.40;99.90
18229;DHT22;9239;50.932;3.142;2023-03-17T12:34:07;17.50;99.90
18229;DHT22;9239;50.932;3.142;2023-03-17T12:36:36;17.70;99.90
18229;DHT22;9239;50.932;3.142;2023-03-17T12:39:08;17.80;99.90
18229;DHT22;9239;50.932;3.142;2023-03-17T12:41:58;17.90;99.90
18229;DHT22;9239;50.932;3.142;2023-03-17T12:44:40;18.10;99.90
18229;DHT22;9239;50.932;3.142;2023-03-17T12:47:38;18.20;99.90
18229;DHT22;9239;50.932;3.142;2023-03-17T12:50:22;17.90;99.90
18229;DHT22;9239;50.932;3.142;2023-03-17T12:53:09;17.80;99.90
18229;DHT22;9239;50.932;3.142;2023-03-17T12:55:38;17.90;99.90
18229;DHT22;9239;50.932;3.142;2023-03-17T12:58:20;17.90;99.90
18229;DHT22;9239;50.932;3.142;2023-03-17T13:00:54;17.90;99.90
18229;DHT22;9239;50.932;3.142;2023-03-17T13:03:24;17.90;99.90
18229;DHT22;9239;50.932;3.142;2023-03-17T13:05:56;18.10;99.90
18229;DHT22;9239;50.932;3.142;2023-03-17T13:08:29;18.20;99.90
18229;DHT22;9239;50.932;3.142;2023-03-17T13:11:17;18.50;99.90
18229;DHT22;9239;50.932;3.142;2023-03-17T13:13:54;18.50;99.90
18229;DHT22;9239;50.932;3.142;2023-03-17T13:16:32;18.60;99.90
18229;DHT22;9239;50.932;3.142;2023-03-17T13:19:20;18.60;99.90
18229;DHT22;9239;50.932;3.142;2023-03-17T13:22:30;18.80;99.90
18229;DHT22;9239;50.932;3.142;2023-03-17T13:24:44;18.60;99.90
18229;DHT22;9239;50.932;3.142;2023-03-17T13:27:14;18.50;99.90
18229;DHT22;9239;50.932;3.142;2023-03-17T13:30:42;18.50;99.90
18229;DHT22;9239;50.932;3.142;2023-03-17T13:33:20;18.50;99.90
18229;DHT22;9239;50.932;3.142;2023-03-17T13:36:07;18.50;99.90
18229;DHT22;9239;50.932;3.142;2023-03-17T13:42:02;18.40;99.90
18229;DHT22;9239;50.932;3.142;2023-03-17T13:44:41;18.20;99.90
18229;DHT22;9239;50.932;3.142;2023-03-17T13:47:26;18.40;99.90
18229;DHT22;9239;50.932;3.142;2023-03-17T13:49:59;18.60;99.90
18229;DHT22;9239;50.932;3.142;2023-03-17T13:52:30;18.90;99.90
18229;DHT22;9239;50.932;3.142;2023-03-17T13:55:01;18.80;99.90
18229;DHT22;9239;50.932;3.142;2023-03-17T13:57:36;18.70;99.90
18229;DHT22;9239;50.932;3.142;2023-03-17T14:00:20;18.30;99.90
18229;DHT22;9239;50.932;3.142;2023-03-17T14:02:55;18.20;99.90
18229;DHT22;9239;50.932;3.142;2023-03-17T14:05:27;18.00;99.90
18229;DHT22;9239;50.932;3.142;2023-03-17T14:07:57;18.00;99.90
18229;DHT22;9239;50.932;3.142;2023-03-17T14:10:26;18.00;99.90
18229;DHT22;9239;50.932;3.142;2023-03-17T14:12:58;17.90;99.90
18229;DHT22;9239;50.932;3.142;2023-03-17T14:15:29;17.80;99.90
18229;DHT22;9239;50.932;3.142;2023-03-17T14:18:02;17.80;99.90
18229;DHT22;9239;50.932;3.142;2023-03-17T14:20:30;17.90;99.90
18229;DHT22;9239;50.932;3.142;2023-03-17T14:22:59;18.00;99.90
18229;DHT22;9239;50.932;3.142;2023-03-17T14:25:32;18.10;99.90
18229;DHT22;9239;50.932;3.142;2023-03-17T14:28:03;18.00;99.90
18229;DHT22;9239;50.932;3.142;2023-03-17T14:30:33;18.00;99.90
18229;DHT22;9239;50.932;3.142;2023-03-17T14:33:04;18.10;99.90
18229;DHT22;9239;50.932;3.142;2023-03-17T14:35:34;18.10;99.90
18229;DHT22;9239;50.932;3.142;2023-03-17T14:38:02;17.90;99.90
18229;DHT22;9239;50.932;3.142;2023-03-17T14:40:30;17.80;99.90
18229;DHT22;9239;50.932;3.142;2023-03-17T14:43:01;17.80;99.90
18229;DHT22;9239;50.932;3.142;2023-03-17T14:45:36;17.80;99.90
18229;DHT22;9239;50.932;3.142;2023-03-17T14:48:11;17.70;99.90
18229;DHT22;9239;50.932;3.142;2023-03-17T14:50:48;17.70;99.90
18229;DHT22;9239;50.932;3.142;2023-03-17T14:53:16;17.70;99.90
18229;DHT22;9239;50.932;3.142;2023-03-17T14:55:44;17.60;99.90
18229;DHT22;9239;50.932;3.142;2023-03-17T14:58:21;17.40;99.90
18229;DHT22;9239;50.932;3.142;2023-03-17T15:00:54;17.30;99.90
18229;DHT22;9239;50.932;3.142;2023-03-17T15:03:28;17.20;99.90
18229;DHT22;9239;50.932;3.142;2023-03-17T15:06:04;17.20;99.90
18229;DHT22;9239;50.932;3.142;2023-03-17T15:08:39;17.10;99.90
18229;DHT22;9239;50.932;3.142;2023-03-17T15:11:16;17.10;99.90
18229;DHT22;9239;50.932;3.142;2023-03-17T15:13:44;17.00;99.90
18229;DHT22;9239;50.932;3.142;2023-03-17T15:16:19;16.90;99.90
18229;DHT22;9239;50.932;3.142;2023-03-17T15:18:52;16.90;99.90
18229;DHT22;9239;50.932;3.142;2023-03-17T15:21:29;16.80;99.90
18229;DHT22;9239;50.932;3.142;2023-03-17T15:24:03;16.70;99.90
18229;DHT22;9239;50.932;3.142;2023-03-17T15:26:30;16.70;99.90
18229;DHT22;9239;50.932;3.142;2023-03-17T15:28:58;16.60;99.90
18229;DHT22;9239;50.932;3.142;2023-03-17T15:31:25;16.50;99.90
18229;DHT22;9239;50.932;3.142;2023-03-17T15:33:56;16.50;99.90
18229;DHT22;9239;50.932;3.142;2023-03-17T15:36:23;16.40;99.90
18229;DHT22;9239;50.932;3.142;2023-03-17T15:38:50;16.30;99.90
18229;DHT22;9239;50.932;3.142;2023-03-17T15:41:18;16.30;99.90
18229;DHT22;9239;50.932;3.142;2023-03-17T15:43:45;16.30;99.90
18229;DHT22;9239;50.932;3.142;2023-03-17T15:46:19;16.30;99.90
18229;DHT22;9239;50.932;3.142;2023-03-17T15:48:47;16.30;99.90
18229;DHT22;9239;50.932;3.142;2023-03-17T15:51:15;16.30;99.90
18229;DHT22;9239;50.932;3.142;2023-03-17T15:53:42;16.20;99.90
18229;DHT22;9239;50.932;3.142;2023-03-17T15:56:14;16.30;99.90
18229;DHT22;9239;50.932;3.142;2023-03-17T15:58:43;16.30;99.90
18229;DHT22;9239;50.932;3.142;2023-03-17T16:01:11;16.30;99.90
18229;DHT22;9239;50.932;3.142;2023-03-17T16:03:39;16.30;99.90
18229;DHT22;9239;50.932;3.142;2023-03-17T16:06:13;16.20;99.90
18229;DHT22;9239;50.932;3.142;2023-03-17T16:08:42;16.30;99.90
18229;DHT22;9239;50.932;3.142;2023-03-17T16:11:16;16.20;99.90
18229;DHT22;9239;50.932;3.142;2023-03-17T16:13:44;16.20;99.90